Maysville, Georgia
Current Conditions -  °F | °C
As of 2:15 AM on Sunday 23 Nov 2014 (Local Time) from K19A Reporting Station
Drizzle Drizzle  
Wind Chill: 41°   Ceiling: 2000
Heat Index: 45°   Visibility: 10mi
Dew Point: 37°   Wind: 6mph
Humidity: 76%   Direction: 60°ENE
Pressure: 30.2"   Gusts: NA
Location:  34.25°N, 83.56°W
Report Text: K19A 230715Z AUTO 06005KT 10SM -DZ OVC020 07/03 A3020 RMK AO2
Loading
Personal Weather Stations






























Interactive Weather Map New forecast layout! Learn more

10-Day Weather Forecast

Advertisements
Track Severe Weather on mobile